createdAt,value
2022-11-15T00:00:36.100Z,102379.59
2022-11-15T00:03:46.708Z,102377.81
2022-11-15T00:06:52.520Z,102348.84
2022-11-15T00:09:57.841Z,102372.56
2022-11-15T00:13:03.311Z,102369.06
2022-11-15T00:16:09.119Z,102368.19
2022-11-15T00:19:14.649Z,102366.44
2022-11-15T00:22:20.188Z,102323.41
2022-11-15T00:25:26.004Z,102389.19
2022-11-15T00:28:31.480Z,102384.78
2022-11-15T00:31:36.554Z,102361.97
2022-11-15T00:34:42.105Z,102399.72
2022-11-15T00:37:47.475Z,102391.81
2022-11-15T00:40:53.101Z,102404.97
2022-11-15T00:43:58.606Z,102395.31
2022-11-15T00:47:04.007Z,102388.31
2022-11-15T00:50:14.130Z,102393.56
2022-11-15T00:53:20.944Z,102413.69
2022-11-15T00:56:26.741Z,102406.72
2022-11-15T00:59:32.156Z,102408.44
2022-11-15T01:02:37.698Z,102411.06
2022-11-15T01:05:43.340Z,102408.44
2022-11-15T01:08:48.633Z,102405.81
2022-11-15T01:11:54.471Z,102421.56
2022-11-15T01:15:00.187Z,102417.22
2022-11-15T01:18:05.790Z,102419.81
2022-11-15T01:21:11.204Z,102410.19
2022-11-15T01:24:17.599Z,102321.44
2022-11-15T01:27:22.815Z,102418.91
2022-11-15T01:30:28.892Z,102420.69
2022-11-15T01:33:34.315Z,102418.91
2022-11-15T01:36:42.196Z,102422.41
2022-11-15T01:39:47.711Z,102412.78
2022-11-15T01:42:53.302Z,102412.78
2022-11-15T01:45:58.632Z,102411.00
2022-11-15T01:49:04.572Z,102411.88
2022-11-15T01:52:10.055Z,102396.09
2022-11-15T01:55:20.264Z,102399.63
2022-11-15T01:58:26.643Z,102403.09
2022-11-15T02:01:34.396Z,102400.47
2022-11-15T02:05:12.039Z,102408.34
2022-11-15T02:08:17.779Z,102410.09
2022-11-15T02:11:28.233Z,102407.47
2022-11-15T02:14:36.894Z,102365.22
2022-11-15T02:17:53.513Z,102417.06
2022-11-15T02:21:04.643Z,102415.31
2022-11-15T02:24:18.939Z,102420.56
2022-11-15T02:28:05.576Z,102409.19
2022-11-15T02:31:25.798Z,102412.69
2022-11-15T02:34:42.158Z,102407.44
2022-11-15T02:37:55.473Z,102413.53
2022-11-15T02:41:01.010Z,102413.53
2022-11-15T02:44:21.726Z,102406.50
2022-11-15T02:47:37.022Z,102417.03
2022-11-15T02:50:46.732Z,102341.44
2022-11-15T02:53:52.370Z,102428.44
2022-11-15T02:56:57.637Z,102430.19
2022-11-15T03:00:44.019Z,102429.28
2022-11-15T03:04:01.042Z,102442.41
2022-11-15T03:07:21.713Z,102442.41
2022-11-15T03:10:33.262Z,102377.34
2022-11-15T03:13:48.804Z,102451.19
2022-11-15T03:17:02.945Z,102452.03
2022-11-15T03:20:12.787Z,102455.53
2022-11-15T03:23:24.495Z,102465.13
2022-11-15T03:26:33.438Z,102463.41
2022-11-15T03:29:43.939Z,102461.63
2022-11-15T03:32:53.204Z,102372.84
2022-11-15T03:36:02.307Z,102467.75
2022-11-15T03:39:07.792Z,102470.34
2022-11-15T03:42:28.740Z,102469.50
2022-11-15T03:46:00.524Z,102472.13
2022-11-15T03:49:14.711Z,102389.47
2022-11-15T03:52:21.839Z,102470.31
2022-11-15T03:55:30.185Z,102475.56
2022-11-15T03:58:35.797Z,102377.09
2022-11-15T04:01:41.340Z,102489.59
2022-11-15T04:04:47.231Z,102492.22
2022-11-15T04:07:52.852Z,102500.97
2022-11-15T04:10:58.987Z,102468.38
2022-11-15T04:14:04.224Z,102510.56
2022-11-15T04:17:09.690Z,102500.03
2022-11-15T04:20:13.115Z,102510.56
2022-11-15T04:23:19.631Z,102414.75
2022-11-15T04:26:32.102Z,102506.19
2022-11-15T04:29:55.979Z,102510.53
2022-11-15T04:33:01.134Z,102502.66
2022-11-15T04:36:06.737Z,102514.06
2022-11-15T04:39:12.214Z,102513.16
2022-11-15T04:42:17.570Z,102522.78
2022-11-15T04:45:22.851Z,102513.13
2022-11-15T04:48:28.392Z,102521.03
2022-11-15T04:51:33.732Z,102526.25
2022-11-15T04:54:39.425Z,102534.16
2022-11-15T04:57:44.757Z,102523.59
2022-11-15T05:00:51.245Z,102446.16
2022-11-15T05:03:55.920Z,102544.66
2022-11-15T05:07:01.794Z,102549.91
2022-11-15T05:10:07.523Z,102549.03
2022-11-15T05:13:13.311Z,102516.47
2022-11-15T05:16:18.907Z,102541.97
2022-11-15T05:19:24.746Z,102548.94
2022-11-15T05:22:30.049Z,102552.47
2022-11-15T05:25:35.971Z,102570.88
2022-11-15T05:28:41.320Z,102490.84
2022-11-15T05:31:48.426Z,102573.50
2022-11-15T05:34:53.988Z,102566.53
2022-11-15T05:37:59.679Z,102577.88
2022-11-15T05:41:05.295Z,102499.44
2022-11-15T05:44:12.137Z,102551.28
2022-11-15T05:47:18.231Z,102596.25
2022-11-15T05:50:24.203Z,102598.03
2022-11-15T05:53:32.040Z,102605.00
2022-11-15T05:56:38.151Z,102616.41
2022-11-15T05:59:44.138Z,102596.13
2022-11-15T06:02:49.643Z,102616.38
2022-11-15T06:05:55.228Z,102615.47
2022-11-15T06:09:00.864Z,102632.13
2022-11-15T06:12:06.304Z,102631.22
2022-11-15T06:15:11.914Z,102603.00
2022-11-15T06:18:17.979Z,102640.81
2022-11-15T06:21:23.883Z,102622.38
2022-11-15T06:24:28.997Z,102579.22
2022-11-15T06:27:34.708Z,102625.03
2022-11-15T06:30:41.145Z,102639.06
2022-11-15T06:33:46.953Z,102634.63
2022-11-15T06:36:54.760Z,102645.22
2022-11-15T06:40:00.506Z,102652.22
2022-11-15T06:43:05.798Z,102646.94
2022-11-15T06:46:11.606Z,102646.06
2022-11-15T06:49:16.998Z,102653.94
2022-11-15T06:52:22.438Z,102652.19
2022-11-15T06:55:28.634Z,102664.44
2022-11-15T06:58:34.396Z,102666.19
2022-11-15T07:01:39.651Z,102605.31
2022-11-15T07:04:45.250Z,102673.16
2022-11-15T07:07:50.780Z,102679.25
2022-11-15T07:10:56.753Z,102684.50
2022-11-15T07:14:02.246Z,102683.66
2022-11-15T07:16:47.832Z,102694.16
2022-11-15T07:19:33.601Z,102692.38
2022-11-15T07:22:19.221Z,102690.63
2022-11-15T07:25:04.873Z,102694.97
2022-11-15T07:28:00.713Z,102694.94
2022-11-15T07:30:46.329Z,102693.22
2022-11-15T07:33:32.759Z,102665.03
2022-11-15T07:36:18.629Z,102702.75
2022-11-15T07:39:04.374Z,102707.19
2022-11-15T07:41:50.506Z,102708.94
2022-11-15T07:44:36.123Z,102712.44
2022-11-15T07:47:41.523Z,102716.75
2022-11-15T07:50:48.095Z,102696.53
2022-11-15T07:53:53.495Z,102706.16
2022-11-15T07:57:03.879Z,102721.13
2022-11-15T08:00:12.428Z,102724.59
2022-11-15T08:03:30.671Z,102735.09
2022-11-15T08:06:36.518Z,102734.19
2022-11-15T08:09:41.871Z,102748.22
2022-11-15T08:12:47.659Z,102729.75
2022-11-15T08:15:57.768Z,102747.31
2022-11-15T08:19:03.627Z,102746.44
2022-11-15T08:22:09.144Z,102747.28
2022-11-15T08:25:14.970Z,102744.66
2022-11-15T08:28:23.438Z,102763.91
2022-11-15T08:31:35.385Z,102761.25
2022-11-15T08:34:40.962Z,102756.81
2022-11-15T08:37:46.929Z,102769.09
2022-11-15T08:40:52.628Z,102615.59
2022-11-15T08:43:58.364Z,102766.41
2022-11-15T08:47:06.773Z,102765.53
2022-11-15T08:50:12.382Z,102771.69
2022-11-15T08:53:17.701Z,102719.66
2022-11-15T08:56:23.632Z,102769.03
2022-11-15T08:59:29.213Z,102771.63
2022-11-15T09:02:35.451Z,102760.13
2022-11-15T09:05:41.103Z,102774.25
2022-11-15T09:08:50.168Z,102775.16
2022-11-15T09:12:01.016Z,102770.75
2022-11-15T09:15:08.162Z,102763.78
2022-11-15T09:18:13.684Z,102708.16
2022-11-15T09:21:20.582Z,102770.75
2022-11-15T09:24:25.958Z,102771.66
2022-11-15T09:27:31.496Z,102732.81
2022-11-15T09:30:37.065Z,102774.31
2022-11-15T09:33:43.104Z,102783.09
2022-11-15T09:36:48.494Z,102712.63
2022-11-15T09:39:54.167Z,102764.72
2022-11-15T09:43:08.442Z,102766.53
2022-11-15T09:46:51.311Z,102763.03
2022-11-15T09:50:04.289Z,102767.47
2022-11-15T09:52:57.595Z,102767.44
2022-11-15T09:56:02.810Z,102773.59
2022-11-15T09:59:18.870Z,102767.53
2022-11-15T10:02:26.311Z,102779.78
2022-11-15T10:05:15.514Z,102778.09
2022-11-15T10:08:27.022Z,102780.72
2022-11-15T10:14:39.777Z,102779.06
2022-11-15T10:17:47.819Z,102786.09
2022-11-15T10:21:02.454Z,102782.63
2022-11-15T10:23:50.907Z,102787.03
2022-11-15T10:26:38.487Z,102782.66
2022-11-15T10:29:27.137Z,102788.81
2022-11-15T10:32:14.474Z,102780.84
2022-11-15T10:35:01.662Z,102796.72
2022-11-15T10:37:51.021Z,102795.88
2022-11-15T10:40:45.315Z,102795.03
2022-11-15T10:43:36.681Z,102803.78
2022-11-15T10:46:48.287Z,102797.69
2022-11-15T10:49:36.574Z,102805.63
2022-11-15T10:52:32.888Z,102809.13
2022-11-15T10:55:48.162Z,102803.03
2022-11-15T10:58:52.654Z,102794.31
2022-11-15T11:01:53.027Z,102782.94
2022-11-15T11:04:40.073Z,102783.00
2022-11-15T11:07:42.146Z,102783.84
2022-11-15T11:10:51.939Z,102780.41
2022-11-15T11:13:48.040Z,102778.66
2022-11-15T11:16:38.811Z,102772.56
2022-11-15T11:19:44.353Z,102775.22
2022-11-15T11:23:08.964Z,102770.84
2022-11-15T11:26:04.015Z,102753.22
2022-11-15T11:29:11.881Z,102774.38
2022-11-15T11:32:16.915Z,102779.66
2022-11-15T11:35:15.811Z,102778.78
2022-11-15T11:38:15.704Z,102770.91
2022-11-15T11:41:25.079Z,102725.09
2022-11-15T11:44:51.080Z,102767.47
2022-11-15T11:47:49.890Z,102769.22
2022-11-15T11:50:40.931Z,102770.13
2022-11-15T11:53:45.367Z,102670.59
2022-11-15T11:56:23.760Z,102777.16
2022-11-15T11:58:54.124Z,102771.91
2022-11-15T12:01:26.271Z,102783.31
2022-11-15T12:04:30.931Z,102764.03
2022-11-15T12:07:28.561Z,102767.56
2022-11-15T12:11:03.790Z,102767.56
2022-11-15T12:13:52.551Z,102778.09
2022-11-15T12:16:48.467Z,102769.31
2022-11-15T12:19:35.278Z,102765.72
2022-11-15T12:22:31.827Z,102777.22
2022-11-15T12:25:25.139Z,102778.09
2022-11-15T12:28:21.771Z,102779.84
2022-11-15T12:31:14.603Z,102780.72
2022-11-15T12:34:07.347Z,102775.50
2022-11-15T12:37:03.956Z,102769.34
2022-11-15T12:40:38.392Z,102783.38
2022-11-15T12:43:34.013Z,102778.16
2022-11-15T12:46:24.772Z,102738.50
2022-11-15T12:49:15.320Z,102770.25
2022-11-15T12:52:07.855Z,102771.16
2022-11-15T12:54:57.506Z,102771.16
2022-11-15T12:57:50.973Z,102773.78
2022-11-15T13:00:40.741Z,102763.28
2022-11-15T13:03:48.986Z,102768.53
2022-11-15T13:06:59.338Z,102773.81
2022-11-15T13:10:06.577Z,102776.44
2022-11-15T13:12:53.504Z,102776.47
2022-11-15T13:15:57.186Z,102776.47
2022-11-15T13:18:55.529Z,102767.69
2022-11-15T13:21:43.906Z,102765.06
2022-11-15T13:24:36.930Z,102742.16
2022-11-15T13:27:36.129Z,102760.72
2022-11-15T13:30:24.995Z,102741.31
2022-11-15T13:33:12.836Z,102770.34
2022-11-15T13:36:01.868Z,102772.13
2022-11-15T13:38:52.086Z,102767.75
2022-11-15T13:41:44.649Z,102759.88
2022-11-15T13:44:41.331Z,102766.03
2022-11-15T13:47:35.406Z,102752.91
2022-11-15T13:50:22.658Z,102764.28
2022-11-15T13:53:09.866Z,102757.25
2022-11-15T13:55:57.394Z,102748.44
2022-11-15T13:58:44.337Z,102755.53
2022-11-15T14:01:37.724Z,102760.81
2022-11-15T14:04:24.971Z,102765.19
2022-11-15T14:07:18.840Z,102764.31
2022-11-15T14:10:06.020Z,102766.09
2022-11-15T14:12:55.610Z,102727.31
2022-11-15T14:16:00.370Z,102772.22
2022-11-15T14:19:03.332Z,102769.56
2022-11-15T14:21:50.346Z,102778.34
2022-11-15T14:24:42.292Z,102771.34
2022-11-15T14:27:46.249Z,102752.81
2022-11-15T14:30:37.388Z,102765.16
2022-11-15T14:33:38.398Z,102756.31
2022-11-15T14:36:39.863Z,102744.88
2022-11-15T14:39:27.115Z,102770.34
2022-11-15T14:42:14.005Z,102773.91
2022-11-15T14:45:01.143Z,102776.53
2022-11-15T14:47:48.105Z,102771.25
2022-11-15T14:50:37.436Z,102765.09
2022-11-15T14:53:24.947Z,102703.28
2022-11-15T14:56:12.351Z,102771.22
2022-11-15T14:58:59.511Z,102765.91
2022-11-15T15:01:47.349Z,102741.19
2022-11-15T15:04:34.386Z,102770.28
2022-11-15T15:07:21.549Z,102757.91
2022-11-15T15:13:15.731Z,102778.97
2022-11-15T15:16:02.656Z,102768.44
2022-11-15T15:18:49.704Z,102762.25
2022-11-15T15:21:40.130Z,102772.78
2022-11-15T15:24:27.294Z,102763.06
2022-11-15T15:27:14.163Z,102644.91
2022-11-15T15:30:01.958Z,102753.41
2022-11-15T15:32:48.762Z,102664.31
2022-11-15T15:35:37.205Z,102762.13
2022-11-15T15:38:24.380Z,102763.84
2022-11-15T15:41:11.475Z,102758.56
2022-11-15T15:43:58.655Z,102768.16
2022-11-15T15:46:45.907Z,102771.63
2022-11-15T15:49:32.723Z,102765.38
2022-11-15T15:52:19.706Z,102775.94
2022-11-15T15:55:06.504Z,102777.63
2022-11-15T15:57:53.642Z,102774.97
2022-11-15T16:00:41.799Z,102778.44
2022-11-15T16:03:28.863Z,102778.41
2022-11-15T16:06:15.668Z,102766.00
2022-11-15T16:09:15.026Z,102779.22
2022-11-15T16:12:05.062Z,102777.41
2022-11-15T16:14:32.322Z,102788.72
2022-11-15T16:16:59.222Z,102788.69
2022-11-15T16:19:26.095Z,102789.50
2022-11-15T16:21:53.194Z,102791.25
2022-11-15T16:24:20.877Z,102786.81
2022-11-15T16:27:09.418Z,102782.41
2022-11-15T16:29:56.199Z,102779.72
2022-11-15T16:32:24.190Z,102770.94
2022-11-15T16:34:51.376Z,102736.47
2022-11-15T16:37:23.708Z,102773.47
2022-11-15T16:39:51.120Z,102771.69
2022-11-15T16:42:38.008Z,102759.41
2022-11-15T16:45:25.341Z,102764.63
2022-11-15T16:48:13.430Z,102766.31
2022-11-15T16:51:00.423Z,102768.00
2022-11-15T16:53:48.119Z,102760.97
2022-11-15T16:56:45.659Z,102766.16
2022-11-15T16:59:38.592Z,102671.72
2022-11-15T17:02:31.853Z,102664.66
2022-11-15T17:05:20.265Z,102761.59
2022-11-15T17:08:14.795Z,102720.09
2022-11-15T17:11:02.159Z,102718.19
2022-11-15T17:13:49.106Z,102768.41
2022-11-15T17:16:18.704Z,102766.59
2022-11-15T17:18:45.794Z,102762.22
2022-11-15T17:21:15.959Z,102760.38
2022-11-15T17:23:43.883Z,102755.09
2022-11-15T17:26:29.007Z,102759.47
2022-11-15T17:28:57.911Z,102767.28
2022-11-15T17:31:25.529Z,102678.13
2022-11-15T17:34:12.756Z,102769.81
2022-11-15T17:36:59.646Z,102769.75
2022-11-15T17:39:46.548Z,102760.97
2022-11-15T17:42:33.527Z,102767.06
2022-11-15T17:45:20.391Z,102762.59
2022-11-15T17:48:07.613Z,102750.22
2022-11-15T17:50:54.664Z,102771.25
2022-11-15T17:53:41.452Z,102766.72
2022-11-15T17:56:31.178Z,102771.16
2022-11-15T17:59:21.583Z,102786.84
2022-11-15T18:02:08.838Z,102771.91
2022-11-15T18:04:55.671Z,102776.22
2022-11-15T18:07:42.799Z,102780.56
2022-11-15T18:10:29.709Z,102776.16
2022-11-15T18:13:16.709Z,102774.34
2022-11-15T18:16:14.386Z,102785.66
2022-11-15T18:19:02.251Z,102792.56
2022-11-15T18:21:51.807Z,102788.13
2022-11-15T18:24:38.872Z,102779.31
2022-11-15T18:27:26.836Z,102725.34
2022-11-15T18:30:14.019Z,102771.16
2022-11-15T18:33:00.882Z,102794.00
2022-11-15T18:35:47.851Z,102788.72
2022-11-15T18:38:34.883Z,102794.84
2022-11-15T18:41:36.505Z,102805.28
2022-11-15T18:44:23.430Z,102809.59
2022-11-15T18:47:10.399Z,102806.94
2022-11-15T18:49:57.280Z,102804.19
2022-11-15T18:52:46.603Z,102657.63
2022-11-15T18:55:33.518Z,102772.41
2022-11-15T18:58:20.528Z,102805.06
2022-11-15T19:01:07.477Z,102790.03
2022-11-15T19:03:55.760Z,102804.09
2022-11-15T19:06:48.031Z,102790.81
2022-11-15T19:09:37.192Z,102798.75
2022-11-15T19:12:24.646Z,102805.78
2022-11-15T19:15:11.655Z,102801.31
2022-11-15T19:17:58.481Z,102812.66
2022-11-15T19:20:45.730Z,102813.47
2022-11-15T19:23:32.929Z,102816.88
2022-11-15T19:26:21.681Z,102813.41
2022-11-15T19:29:16.796Z,102811.59
2022-11-15T19:32:04.241Z,102815.91
2022-11-15T19:34:51.108Z,102820.28
2022-11-15T19:37:38.480Z,102814.09
2022-11-15T19:40:25.895Z,102813.19
2022-11-15T19:43:13.056Z,102804.41
2022-11-15T19:46:02.593Z,102815.75
2022-11-15T19:48:52.054Z,102804.41
2022-11-15T19:51:43.822Z,102809.56
2022-11-15T19:54:31.101Z,102814.78
2022-11-15T19:57:17.900Z,102807.78
2022-11-15T20:00:07.458Z,102811.22
2022-11-15T20:02:54.590Z,102815.47
2022-11-15T20:05:41.655Z,102795.31
2022-11-15T20:08:28.621Z,102810.22
2022-11-15T20:11:15.812Z,102789.16
2022-11-15T20:14:02.980Z,102769.69
2022-11-15T20:16:54.277Z,102788.22
2022-11-15T20:19:41.522Z,102779.44
2022-11-15T20:22:28.726Z,102773.31
2022-11-15T20:25:15.611Z,102775.91
2022-11-15T20:28:02.909Z,102776.75
2022-11-15T20:30:49.913Z,102780.09
2022-11-15T20:33:37.023Z,102784.50
2022-11-15T20:36:30.613Z,102787.88
2022-11-15T20:39:18.846Z,102789.63
2022-11-15T20:42:05.796Z,102777.38
2022-11-15T20:44:52.782Z,102687.22
2022-11-15T20:47:39.600Z,102776.34
2022-11-15T20:50:42.260Z,102779.81
2022-11-15T20:53:32.534Z,102781.50
2022-11-15T20:56:28.258Z,102791.03
2022-11-15T20:59:15.164Z,102775.28
2022-11-15T21:02:02.140Z,102769.13
2022-11-15T21:04:49.220Z,102758.56
2022-11-15T21:07:36.321Z,102764.69
2022-11-15T21:10:22.248Z,102764.69
2022-11-15T21:13:09.140Z,102762.84
2022-11-15T21:15:55.954Z,102681.38
2022-11-15T21:18:43.031Z,102767.94
2022-11-15T21:21:29.959Z,102764.34
2022-11-15T21:24:16.868Z,102764.31
2022-11-15T21:27:03.779Z,102762.53
2022-11-15T21:29:56.948Z,102733.53
2022-11-15T21:32:43.979Z,102763.34
2022-11-15T21:35:30.976Z,102757.16
2022-11-15T21:38:17.898Z,102756.31
2022-11-15T21:41:04.851Z,102755.44
2022-11-15T21:43:52.163Z,102679.97
2022-11-15T21:46:39.175Z,102752.75
2022-11-15T21:49:26.723Z,102757.03
2022-11-15T21:52:13.587Z,102741.34
2022-11-15T21:55:00.488Z,102743.03
2022-11-15T21:57:47.622Z,102736.03
2022-11-15T22:00:34.045Z,102749.09
2022-11-15T22:03:21.055Z,102751.66
2022-11-15T22:06:10.670Z,102706.63
2022-11-15T22:08:59.979Z,102742.75
2022-11-15T22:11:46.950Z,102688.09
2022-11-15T22:14:34.090Z,102742.75
2022-11-15T22:17:21.378Z,102726.16
2022-11-15T22:20:29.957Z,102740.91
2022-11-15T22:23:15.375Z,102740.88
2022-11-15T22:26:03.340Z,102734.50
2022-11-15T22:28:50.323Z,102764.31
2022-11-15T22:31:37.261Z,102753.84
2022-11-15T22:34:24.227Z,102753.75
2022-11-15T22:37:20.492Z,102757.22
2022-11-15T22:40:09.640Z,102733.59
2022-11-15T22:42:56.653Z,102758.94
2022-11-15T22:45:43.762Z,102744.09
2022-11-15T22:48:30.797Z,102714.94
2022-11-15T22:51:18.528Z,102751.84
2022-11-15T22:54:05.583Z,102734.41
2022-11-15T22:56:52.496Z,102734.38
2022-11-15T22:59:39.570Z,102740.47
2022-11-15T23:02:26.589Z,102737.81
2022-11-15T23:05:13.507Z,102735.94
2022-11-15T23:08:00.679Z,102745.59
2022-11-15T23:10:46.504Z,102738.59
2022-11-15T23:13:36.693Z,102742.91
2022-11-15T23:16:25.549Z,102740.19
2022-11-15T23:19:18.173Z,102744.47
2022-11-15T23:22:05.085Z,102730.53
2022-11-15T23:24:53.198Z,102711.16
2022-11-15T23:27:40.231Z,102726.97
2022-11-15T23:30:27.919Z,102717.34
2022-11-15T23:33:13.706Z,102707.75
2022-11-15T23:36:00.861Z,102708.59
2022-11-15T23:38:47.827Z,102724.25
2022-11-15T23:41:34.919Z,102705.94
2022-11-15T23:44:22.067Z,102699.81
2022-11-15T23:47:09.062Z,102697.22
2022-11-15T23:49:56.223Z,102697.16
2022-11-15T23:52:43.243Z,102695.13
2022-11-15T23:55:30.237Z,102706.66
2022-11-15T23:58:17.443Z,102709.25
